createdAt,value
2018-03-24T05:00:51.580Z,8
2018-03-24T05:01:17.130Z,8
2018-03-24T05:02:30.807Z,8
2018-03-24T05:02:56.260Z,8
2018-03-24T05:03:21.711Z,12
2018-03-24T05:03:47.214Z,12
2018-03-24T05:04:12.680Z,12
2018-03-24T05:04:38.373Z,16
2018-03-24T05:05:03.859Z,16
2018-03-24T05:05:29.380Z,16
2018-03-24T05:05:54.844Z,20
2018-03-24T05:06:20.391Z,20
2018-03-24T05:06:45.835Z,20
2018-03-24T05:07:11.333Z,20
2018-03-24T05:07:36.740Z,24
2018-03-24T05:08:02.277Z,28
2018-03-24T05:08:27.748Z,28
2018-03-24T05:08:53.175Z,28
2018-03-24T05:09:18.668Z,28
2018-03-24T05:09:44.132Z,32
2018-03-24T05:10:09.572Z,32
2018-03-24T05:10:35.058Z,36
2018-03-24T05:11:00.522Z,40
2018-03-24T05:11:25.969Z,40
2018-03-24T05:11:51.452Z,44
2018-03-24T05:12:16.896Z,44
2018-03-24T05:12:42.360Z,48
2018-03-24T05:13:07.851Z,52
2018-03-24T05:13:33.307Z,52
2018-03-24T05:13:58.766Z,56
2018-03-24T05:14:24.230Z,60
2018-03-24T05:14:49.749Z,64
2018-03-24T05:15:15.231Z,68
2018-03-24T05:15:40.737Z,72
2018-03-24T05:16:06.222Z,76
2018-03-24T05:16:31.673Z,80
2018-03-24T05:16:57.136Z,80
2018-03-24T05:17:22.621Z,88
2018-03-24T05:17:48.091Z,92
2018-03-24T05:18:13.552Z,96
2018-03-24T05:18:39.049Z,100
2018-03-24T05:19:04.495Z,108
2018-03-24T05:19:29.990Z,116
2018-03-24T05:19:55.589Z,120
2018-03-24T05:20:21.020Z,124
2018-03-24T05:20:46.492Z,136
2018-03-24T05:21:11.978Z,140
2018-03-24T05:21:37.394Z,148
2018-03-24T05:22:02.860Z,152
2018-03-24T05:22:28.394Z,156
2018-03-24T05:22:53.879Z,164
2018-03-24T05:23:19.348Z,172
2018-03-24T05:23:44.875Z,180
2018-03-24T05:24:10.291Z,184
2018-03-24T05:24:35.800Z,192
2018-03-24T05:25:01.280Z,200
2018-03-24T05:25:26.739Z,208
2018-03-24T05:25:52.233Z,216
2018-03-24T05:26:17.654Z,224
2018-03-24T05:26:43.085Z,236
2018-03-24T05:27:08.577Z,244
2018-03-24T05:27:34.047Z,252
2018-03-24T05:27:59.481Z,264
2018-03-24T05:28:25.000Z,272
2018-03-24T05:29:48.994Z,304
2018-03-24T05:30:14.575Z,316
2018-03-24T05:30:40.060Z,328
2018-03-24T05:31:05.518Z,340
2018-03-24T05:31:31.057Z,352
2018-03-24T05:31:56.497Z,364
2018-03-24T05:32:22.039Z,376
2018-03-24T05:32:47.476Z,388
2018-03-24T05:33:12.895Z,404
2018-03-24T05:33:38.381Z,416
2018-03-24T05:34:03.874Z,432
2018-03-24T05:34:29.364Z,444
2018-03-24T05:34:54.769Z,460
2018-03-24T05:35:20.253Z,476
2018-03-24T05:35:45.724Z,488
2018-03-24T05:36:11.154Z,504
2018-03-24T05:36:36.664Z,516
2018-03-24T05:37:02.100Z,528
2018-03-24T05:37:27.591Z,544
2018-03-24T05:37:53.053Z,560
2018-03-24T05:38:18.545Z,568
2018-03-24T05:38:44.021Z,584
2018-03-24T05:39:09.530Z,596
2018-03-24T05:39:35.032Z,612
2018-03-24T05:40:00.528Z,624
2018-03-24T05:40:26.024Z,636
2018-03-24T05:40:51.717Z,652
2018-03-24T05:41:17.287Z,668
2018-03-24T05:41:42.709Z,680
2018-03-24T05:42:08.193Z,692
2018-03-24T05:42:33.725Z,708
2018-03-24T05:42:59.178Z,720
2018-03-24T05:43:24.648Z,736
2018-03-24T05:43:50.103Z,748
2018-03-24T05:44:15.697Z,760
2018-03-24T05:44:41.232Z,776
2018-03-24T05:45:06.853Z,788
2018-03-24T05:45:32.309Z,804
2018-03-24T05:45:57.819Z,816
2018-03-24T05:46:23.326Z,832
2018-03-24T05:46:48.801Z,844
2018-03-24T05:47:14.274Z,860
2018-03-24T05:47:39.786Z,876
2018-03-24T05:48:05.210Z,892
2018-03-24T05:48:30.781Z,908
2018-03-24T05:48:56.210Z,924
2018-03-24T05:49:21.695Z,940
2018-03-24T05:50:35.525Z,988
2018-03-24T05:51:01.001Z,996
2018-03-24T05:51:26.499Z,1012
2018-03-24T05:51:51.973Z,1024
2018-03-24T05:52:17.475Z,1032
2018-03-24T05:52:42.957Z,1044
2018-03-24T05:53:08.393Z,1048
2018-03-24T05:53:33.900Z,1056
2018-03-24T05:53:59.333Z,1068
2018-03-24T05:54:24.962Z,1080
2018-03-24T05:54:50.525Z,1100
2018-03-24T05:55:15.967Z,1124
2018-03-24T05:55:41.408Z,1148
2018-03-24T05:56:06.890Z,1168
2018-03-24T05:56:32.401Z,1184
2018-03-24T05:56:57.823Z,1204
2018-03-24T05:57:23.320Z,1216
2018-03-24T05:57:48.806Z,1232
2018-03-24T05:58:14.226Z,1248
2018-03-24T05:58:39.754Z,1264
2018-03-24T05:59:05.252Z,1284
2018-03-24T05:59:30.726Z,1300
2018-03-24T05:59:56.267Z,1316
2018-03-24T06:00:21.765Z,1332
2018-03-24T06:00:47.322Z,1352
2018-03-24T06:01:12.838Z,1368
2018-03-24T06:01:38.338Z,1388
2018-03-24T06:02:03.718Z,1408
2018-03-24T06:03:17.489Z,1464
2018-03-24T06:03:42.987Z,1484
2018-03-24T06:04:08.526Z,1500
2018-03-24T06:04:33.983Z,1516
2018-03-24T06:04:59.443Z,1536
2018-03-24T06:05:24.914Z,1552
2018-03-24T06:05:50.463Z,1564
2018-03-24T06:06:16.025Z,1580
2018-03-24T06:06:41.513Z,1592
2018-03-24T06:07:06.990Z,1608
2018-03-24T06:07:32.498Z,1616
2018-03-24T06:07:57.952Z,1624
2018-03-24T06:08:23.452Z,1636
2018-03-24T06:08:48.954Z,1644
2018-03-24T06:09:14.454Z,1652
2018-03-24T06:09:39.941Z,1664
2018-03-24T06:10:05.455Z,1672
2018-03-24T06:10:30.964Z,1684
2018-03-24T06:10:56.491Z,1700
2018-03-24T06:11:21.980Z,1712
2018-03-24T06:11:47.493Z,1728
2018-03-24T06:12:51.131Z,1760
2018-03-24T06:13:16.601Z,1776
2018-03-24T06:13:42.116Z,1788
2018-03-24T06:14:07.624Z,1800
2018-03-24T06:14:33.116Z,1816
2018-03-24T06:14:58.568Z,1828
2018-03-24T06:15:24.036Z,1844
2018-03-24T06:15:49.521Z,1864
2018-03-24T06:16:14.977Z,1884
2018-03-24T06:16:40.532Z,1916
2018-03-24T06:17:06.023Z,1956
2018-03-24T06:17:31.489Z,1996
2018-03-24T06:17:56.932Z,2024
2018-03-24T06:18:22.401Z,2068
2018-03-24T06:18:47.902Z,2124
2018-03-24T06:19:13.367Z,2168
2018-03-24T06:19:38.852Z,2196
2018-03-24T06:20:04.365Z,2224
2018-03-24T06:20:29.863Z,2264
2018-03-24T06:20:55.333Z,2292
2018-03-24T06:21:20.837Z,2316
2018-03-24T06:21:46.343Z,2332
2018-03-24T06:22:11.855Z,2368
2018-03-24T06:22:37.370Z,2428
2018-03-24T06:23:02.841Z,2484
2018-03-24T06:23:28.279Z,2524
2018-03-24T06:23:53.755Z,2532
2018-03-24T06:24:19.216Z,2556
2018-03-24T06:24:44.693Z,2596
2018-03-24T06:25:10.176Z,2624
2018-03-24T06:25:35.637Z,2628
2018-03-24T06:26:01.124Z,2644
2018-03-24T06:26:26.590Z,2660
2018-03-24T06:27:46.496Z,2688
2018-03-24T06:28:11.978Z,2652
2018-03-24T06:28:37.459Z,2688
2018-03-24T06:29:02.960Z,2804
2018-03-24T06:29:28.431Z,2828
2018-03-24T06:29:53.942Z,2856
2018-03-24T06:30:19.482Z,2868
2018-03-24T06:30:44.992Z,2872
2018-03-24T06:31:48.613Z,2996
2018-03-24T06:32:14.086Z,3024
2018-03-24T06:32:39.573Z,3052
2018-03-24T06:33:05.061Z,3060
2018-03-24T06:34:08.663Z,2968
2018-03-24T06:34:34.165Z,2572
2018-03-24T06:34:59.675Z,2616
2018-03-24T06:35:25.146Z,2796
2018-03-24T06:35:50.726Z,3064
2018-03-24T06:36:16.215Z,3100
2018-03-24T06:36:41.714Z,3416
2018-03-24T06:37:07.181Z,3568
2018-03-24T06:37:32.673Z,3684
2018-03-24T06:37:58.193Z,3348
2018-03-24T06:38:23.693Z,3520
2018-03-24T06:38:49.170Z,3740
2018-03-24T06:39:14.643Z,4008
2018-03-24T06:39:40.113Z,4188
2018-03-24T06:40:05.593Z,4236
2018-03-24T06:40:31.078Z,4276
2018-03-24T06:40:56.578Z,4244
2018-03-24T06:41:22.098Z,4112
2018-03-24T06:41:47.590Z,4288
2018-03-24T06:42:13.078Z,4108
2018-03-24T06:42:38.593Z,4308
2018-03-24T06:43:04.083Z,4616
2018-03-24T06:43:29.575Z,4612
2018-03-24T06:43:55.117Z,4580
2018-03-24T06:44:20.633Z,4108
2018-03-24T06:44:46.205Z,4324
2018-03-24T06:45:11.653Z,4504
2018-03-24T06:45:37.125Z,4420
2018-03-24T06:46:02.676Z,4420
2018-03-24T06:46:28.174Z,4372
2018-03-24T06:46:53.934Z,4268
2018-03-24T06:47:19.327Z,4204
2018-03-24T06:47:44.827Z,4060
2018-03-24T06:48:10.339Z,4008
2018-03-24T06:48:35.821Z,3932
2018-03-24T06:49:01.347Z,3888
2018-03-24T06:49:26.823Z,3848
2018-03-24T06:49:52.310Z,3892
2018-03-24T06:50:17.763Z,3932
2018-03-24T06:50:43.269Z,3936
2018-03-24T06:51:08.761Z,4008
2018-03-24T06:51:34.254Z,4040
2018-03-24T06:51:59.740Z,4016
2018-03-24T06:52:25.210Z,3916
2018-03-24T06:52:50.678Z,3808
2018-03-24T06:53:16.151Z,3692
2018-03-24T06:53:41.671Z,3580
2018-03-24T06:54:07.321Z,3484
2018-03-24T06:54:32.715Z,3424
2018-03-24T06:54:58.190Z,3368
2018-03-24T06:55:23.658Z,3320
2018-03-24T06:55:49.184Z,3292
2018-03-24T06:57:13.252Z,3204
2018-03-24T06:57:38.788Z,3176
2018-03-24T06:58:04.313Z,3172
2018-03-24T06:58:29.796Z,3172
2018-03-24T06:58:55.285Z,3212
2018-03-24T06:59:20.757Z,3264
2018-03-24T07:00:44.947Z,3476
2018-03-24T07:01:10.453Z,3480
2018-03-24T07:01:35.956Z,3436
2018-03-24T07:02:01.381Z,3460
2018-03-24T07:02:26.902Z,3492
2018-03-24T07:02:52.406Z,3516
2018-03-24T07:03:18.035Z,3548
2018-03-24T07:03:43.539Z,3584
2018-03-24T07:04:09.027Z,3560
2018-03-24T07:04:34.600Z,3524
2018-03-24T07:05:00.094Z,3484
2018-03-24T07:05:25.631Z,3464
2018-03-24T07:05:51.123Z,3516
2018-03-24T07:06:16.656Z,3552
2018-03-24T07:06:42.106Z,3556
2018-03-24T07:07:07.680Z,3560
2018-03-24T07:07:33.148Z,3504
2018-03-24T07:07:58.631Z,3468
2018-03-24T07:08:24.126Z,3468
2018-03-24T07:08:49.615Z,3432
2018-03-24T07:09:15.113Z,3448
2018-03-24T07:09:40.567Z,3528
2018-03-24T07:10:06.023Z,3588
2018-03-24T07:10:31.524Z,3576
2018-03-24T07:10:56.993Z,3556
2018-03-24T07:11:22.463Z,3596
2018-03-24T07:11:48.012Z,3636
2018-03-24T07:12:13.461Z,3572
2018-03-24T07:13:17.098Z,3532
2018-03-24T07:13:42.582Z,3612
2018-03-24T07:14:08.191Z,3664
2018-03-24T07:14:33.591Z,3716
2018-03-24T07:14:59.080Z,3752
2018-03-24T07:15:24.587Z,3760
2018-03-24T07:15:50.136Z,3756
2018-03-24T07:16:15.679Z,3764
2018-03-24T07:16:41.157Z,3752
2018-03-24T07:17:06.644Z,3696
2018-03-24T07:17:32.097Z,3720
2018-03-24T07:17:57.593Z,3788
2018-03-24T07:18:23.093Z,3772
2018-03-24T07:18:48.570Z,3696
2018-03-24T07:19:14.081Z,3644
2018-03-24T07:19:39.658Z,3600
2018-03-24T07:20:05.157Z,3576
2018-03-24T07:20:30.650Z,3540
2018-03-24T07:20:56.172Z,3612
2018-03-24T07:21:21.752Z,3748
2018-03-24T07:21:47.169Z,3792
2018-03-24T07:22:12.668Z,3824
2018-03-24T07:22:38.125Z,3876
2018-03-24T07:23:03.602Z,3932
2018-03-24T07:23:29.040Z,4008
2018-03-24T07:23:54.536Z,4080
2018-03-24T07:24:19.984Z,4164
2018-03-24T07:24:45.684Z,4208
2018-03-24T07:25:11.166Z,4260
2018-03-24T07:25:36.647Z,4288
2018-03-24T07:26:02.137Z,4240
2018-03-24T07:26:27.586Z,4240
2018-03-24T07:26:53.083Z,4312
2018-03-24T07:27:18.559Z,4424
2018-03-24T07:27:43.996Z,4480
2018-03-24T07:28:09.575Z,4524
2018-03-24T07:28:35.084Z,4540
2018-03-24T07:29:00.572Z,4596
2018-03-24T07:29:25.925Z,4464
2018-03-24T07:29:51.454Z,4552
2018-03-24T07:30:16.964Z,4680
2018-03-24T07:30:42.393Z,4708
2018-03-24T07:31:07.910Z,4720
2018-03-24T07:31:33.363Z,4764
2018-03-24T07:31:58.890Z,4800
2018-03-24T07:32:24.361Z,4836
2018-03-24T07:32:49.819Z,4864
2018-03-24T07:33:15.255Z,4888
2018-03-24T07:33:40.861Z,4900
2018-03-24T07:34:06.375Z,4920
2018-03-24T07:34:31.874Z,4916
2018-03-24T07:34:57.408Z,4924
2018-03-24T07:35:22.854Z,4952
2018-03-24T07:35:48.281Z,4960
2018-03-24T07:36:13.735Z,4972
2018-03-24T07:36:39.310Z,4992
2018-03-24T07:37:04.744Z,5004
2018-03-24T07:37:30.194Z,5012
2018-03-24T07:37:55.682Z,5012
2018-03-24T07:38:21.113Z,5016
2018-03-24T07:38:46.553Z,5020
2018-03-24T07:39:12.014Z,5036
2018-03-24T07:39:37.515Z,5052
2018-03-24T07:40:03.078Z,4964
2018-03-24T07:40:28.600Z,4788
2018-03-24T07:40:54.111Z,4624
2018-03-24T07:41:19.584Z,4592
2018-03-24T07:41:45.033Z,4680
2018-03-24T07:42:10.541Z,4740
2018-03-24T07:42:35.956Z,4872
2018-03-24T07:43:01.411Z,4984
2018-03-24T07:43:26.877Z,5004
2018-03-24T07:43:52.418Z,4992
2018-03-24T07:44:17.880Z,4920
2018-03-24T07:44:43.372Z,4872
2018-03-24T07:45:08.834Z,4880
2018-03-24T07:45:34.251Z,4856
2018-03-24T07:45:59.716Z,4764
2018-03-24T07:46:25.213Z,4744
2018-03-24T07:46:50.745Z,4836
2018-03-24T07:47:16.172Z,4892
2018-03-24T07:47:41.704Z,4860
2018-03-24T07:48:07.100Z,4884
2018-03-24T07:48:32.712Z,4884
2018-03-24T07:48:58.176Z,4840
2018-03-24T07:49:23.693Z,4812
2018-03-24T07:49:49.161Z,4768
2018-03-24T07:50:14.674Z,4748
2018-03-24T07:50:40.151Z,4736
2018-03-24T07:51:05.639Z,4708
2018-03-24T07:51:31.149Z,4696
2018-03-24T07:51:56.613Z,4692
2018-03-24T07:52:22.067Z,4700
2018-03-24T07:52:47.550Z,4708
2018-03-24T07:53:13.066Z,4700
2018-03-24T07:53:38.507Z,4648
2018-03-24T07:54:03.992Z,4596
2018-03-24T07:54:29.486Z,4584
2018-03-24T07:54:54.998Z,4580
2018-03-24T07:55:20.400Z,4596
2018-03-24T07:55:45.878Z,4624
2018-03-24T07:56:11.288Z,4628
2018-03-24T07:56:36.767Z,4640
2018-03-24T08:45:34.028Z,4504
2018-03-24T08:45:59.520Z,4424
2018-03-24T08:46:24.993Z,4376
2018-03-24T08:46:50.517Z,4372
2018-03-24T08:47:16.017Z,4404
2018-03-24T08:47:41.514Z,4416
2018-03-24T08:48:07.015Z,4432
2018-03-24T08:48:32.501Z,4476
2018-03-24T08:48:58.013Z,4520
2018-03-24T08:49:23.520Z,4536
2018-03-24T08:49:49.004Z,4532
2018-03-24T08:50:14.498Z,4452
2018-03-24T08:50:39.952Z,4416
2018-03-24T08:51:05.440Z,4432
2018-03-24T08:51:30.999Z,4464
2018-03-24T08:51:56.530Z,4472
2018-03-24T08:52:21.994Z,4488
2018-03-24T08:52:47.484Z,4488
2018-03-24T08:53:13.011Z,4540
2018-03-24T08:53:38.408Z,4544
2018-03-24T08:54:03.922Z,4540
2018-03-24T08:54:29.360Z,4548
2018-03-24T08:55:44.188Z,4640
2018-03-24T08:56:09.671Z,4668
2018-03-24T08:56:35.158Z,4704
2018-03-24T08:57:00.631Z,4724
2018-03-24T08:57:26.061Z,4724
2018-03-24T08:57:51.748Z,4724
2018-03-24T08:58:17.249Z,4740
2018-03-24T08:58:42.741Z,4736
2018-03-24T08:59:08.242Z,4752
2018-03-24T08:59:33.765Z,4772
2018-03-24T08:59:59.355Z,4780
2018-03-24T09:00:24.756Z,4796
2018-03-24T09:00:50.463Z,4816
2018-03-24T09:01:15.883Z,4828
2018-03-24T09:01:41.478Z,4848
2018-03-24T09:02:06.951Z,4852
2018-03-24T09:02:32.380Z,4860
2018-03-24T09:02:57.837Z,4868
2018-03-24T09:03:23.415Z,4864
2018-03-24T09:03:48.850Z,4872
2018-03-24T09:04:14.325Z,4868
2018-03-24T09:04:39.832Z,4864
2018-03-24T09:05:05.460Z,4872
2018-03-24T09:05:30.833Z,4872
2018-03-24T09:05:56.425Z,4868
2018-03-24T09:06:21.888Z,4880
2018-03-24T09:06:47.402Z,4884
2018-03-24T09:07:12.885Z,4872
2018-03-24T09:07:38.403Z,4856
2018-03-24T09:08:47.411Z,4836
2018-03-24T09:09:12.838Z,4832
2018-03-24T09:09:38.332Z,4816
2018-03-24T09:10:03.815Z,4812
2018-03-24T09:10:29.324Z,4796
2018-03-24T09:10:54.818Z,4796
2018-03-24T09:11:20.357Z,4796
2018-03-24T09:11:45.792Z,4800
2018-03-24T09:12:11.284Z,4808
2018-03-24T09:12:36.792Z,4808
2018-03-24T09:13:02.257Z,4808
2018-03-24T09:13:27.803Z,4800
2018-03-24T09:13:53.337Z,4788
2018-03-24T09:14:18.842Z,4772
2018-03-24T09:14:44.306Z,4760
2018-03-24T09:15:09.819Z,4760
2018-03-24T09:15:35.303Z,4752
2018-03-24T09:16:00.785Z,4764
2018-03-24T09:16:26.232Z,4776
2018-03-24T09:16:51.766Z,4772
2018-03-24T09:17:17.345Z,4764
2018-03-24T09:17:42.885Z,4780
2018-03-24T09:18:08.418Z,4776
2018-03-24T09:19:33.439Z,4820
2018-03-24T09:19:58.960Z,4828
2018-03-24T09:20:24.411Z,4824
2018-03-24T09:20:49.886Z,4824
2018-03-24T09:21:15.402Z,4824
2018-03-24T09:21:40.907Z,4832
2018-03-24T09:22:06.428Z,4840
2018-03-24T09:22:31.947Z,4816
2018-03-24T09:22:57.386Z,4832
2018-03-24T09:23:22.892Z,4832
2018-03-24T09:23:48.392Z,4824
2018-03-24T09:24:13.917Z,4824
2018-03-24T09:24:39.406Z,4816
2018-03-24T09:25:04.892Z,4808
2018-03-24T09:25:30.398Z,4804
2018-03-24T09:25:55.901Z,4796
2018-03-24T09:26:21.403Z,4780
2018-03-24T09:26:46.831Z,4776
2018-03-24T09:27:12.335Z,4752
2018-03-24T09:27:37.826Z,4744
2018-03-24T09:28:03.356Z,4728
2018-03-24T09:28:28.788Z,4716
2018-03-24T09:28:54.283Z,4708
2018-03-24T09:29:19.728Z,4704
2018-03-24T09:29:45.234Z,4640
2018-03-24T09:30:10.782Z,4636
2018-03-24T09:30:36.316Z,4632
2018-03-24T09:31:50.128Z,4608
2018-03-24T09:32:15.605Z,4608
2018-03-24T09:32:41.066Z,4604
2018-03-24T09:33:06.571Z,4660
2018-03-24T09:33:32.028Z,4660
2018-03-24T09:33:57.579Z,4644
2018-03-24T09:34:23.045Z,4640
2018-03-24T09:34:48.522Z,4632
2018-03-24T09:35:14.023Z,4616
2018-03-24T09:35:39.509Z,4604
2018-03-24T09:37:03.531Z,4564
2018-03-24T09:37:29.002Z,4564
2018-03-24T09:37:54.482Z,4540
2018-03-24T09:38:20.072Z,4532
2018-03-24T09:39:44.030Z,4492
2018-03-24T09:40:09.499Z,4476
2018-03-24T09:40:34.981Z,4448
2018-03-24T09:41:00.456Z,4424
2018-03-24T09:41:25.979Z,4412
2018-03-24T09:41:51.474Z,4384
2018-03-24T09:42:16.983Z,4352
2018-03-24T09:42:42.479Z,4328
2018-03-24T09:43:07.952Z,4312
2018-03-24T09:43:33.446Z,4296
2018-03-24T09:43:58.946Z,4292
2018-03-24T09:44:24.478Z,4364
2018-03-24T09:44:49.948Z,4356
2018-03-24T09:45:15.460Z,4348
2018-03-24T09:45:40.952Z,4344
2018-03-24T09:46:06.410Z,4332
2018-03-24T09:46:31.900Z,4328
2018-03-24T09:46:57.378Z,4328
2018-03-24T09:47:22.918Z,4324
2018-03-24T09:47:48.377Z,4316
2018-03-24T09:48:13.863Z,4308
2018-03-24T09:48:39.408Z,4288
2018-03-24T09:49:04.889Z,4264
2018-03-24T09:49:30.397Z,4240
2018-03-24T09:49:55.904Z,4232
2018-03-24T09:50:21.391Z,4232
2018-03-24T09:50:46.881Z,4228
2018-03-24T09:51:12.406Z,4240
2018-03-24T09:51:37.892Z,4244
2018-03-24T09:52:03.363Z,4240
2018-03-24T09:52:28.852Z,4096
2018-03-24T09:52:54.574Z,3944
2018-03-24T09:53:20.030Z,4004
2018-03-24T09:53:45.538Z,4164
2018-03-24T09:54:11.048Z,4184
2018-03-24T09:54:36.606Z,4192
2018-03-24T09:55:02.043Z,4204
2018-03-24T09:55:27.630Z,4204
2018-03-24T09:55:53.068Z,4204
2018-03-24T09:56:18.523Z,4212
2018-03-24T09:56:44.001Z,4212
2018-03-24T09:57:09.641Z,4204
2018-03-24T09:57:35.045Z,4200
2018-03-24T09:58:00.571Z,4200
2018-03-24T09:58:26.008Z,4192
2018-03-24T09:58:51.540Z,4176
2018-03-24T09:59:17.036Z,4140
2018-03-24T09:59:42.526Z,4112
2018-03-24T10:00:08.018Z,4104
2018-03-24T10:00:33.542Z,4096
2018-03-24T10:00:59.050Z,4084
2018-03-24T10:01:24.544Z,4076
2018-03-24T10:01:50.099Z,4064
2018-03-24T10:02:15.585Z,4048
2018-03-24T10:02:41.066Z,4040
2018-03-24T10:03:06.517Z,4028
2018-03-24T10:03:32.022Z,4016
2018-03-24T10:03:57.524Z,4000
2018-03-24T10:04:23.053Z,3980
2018-03-24T10:04:48.552Z,3960
2018-03-24T10:05:14.057Z,3948
2018-03-24T10:05:39.541Z,3928
2018-03-24T10:06:05.024Z,3920
2018-03-24T10:06:30.520Z,3892
2018-03-24T10:06:56.013Z,3864
2018-03-24T10:07:21.559Z,3840
2018-03-24T10:07:47.088Z,3816
2018-03-24T10:08:12.638Z,3792
2018-03-24T10:08:38.758Z,3736
2018-03-24T10:09:04.602Z,3732
2018-03-24T10:09:30.716Z,3720
2018-03-24T10:09:56.453Z,3716
2018-03-24T10:10:21.990Z,3700
2018-03-24T10:10:47.477Z,3676
2018-03-24T10:11:12.988Z,3640
2018-03-24T10:11:38.458Z,3624
2018-03-24T10:12:03.968Z,3604
2018-03-24T10:12:29.434Z,3616
2018-03-24T10:12:54.954Z,3620
2018-03-24T10:13:20.441Z,3604
2018-03-24T10:13:45.950Z,3576
2018-03-24T10:14:11.433Z,3580
2018-03-24T10:14:36.902Z,3580
2018-03-24T10:15:02.380Z,3584
2018-03-24T10:16:21.786Z,3604
2018-03-24T10:16:47.338Z,3624
2018-03-24T10:17:12.791Z,3636
2018-03-24T10:17:38.240Z,3656
2018-03-24T10:18:03.739Z,3672
2018-03-24T10:18:29.221Z,3688
2018-03-24T10:18:54.715Z,3700
2018-03-24T10:19:20.197Z,3712
2018-03-24T10:19:45.721Z,3716
2018-03-24T10:20:11.193Z,3712
2018-03-24T10:20:36.701Z,3712
2018-03-24T10:21:02.166Z,3716
2018-03-24T10:21:27.657Z,3736
2018-03-24T10:21:53.114Z,3744
2018-03-24T10:22:18.603Z,3780
2018-03-24T10:22:44.075Z,3784
2018-03-24T10:23:09.577Z,3784
2018-03-24T10:23:35.055Z,3788
2018-03-24T10:24:00.526Z,3796
2018-03-24T10:24:25.979Z,3824
2018-03-24T10:24:51.456Z,3836
2018-03-24T10:25:16.931Z,3860
2018-03-24T10:25:42.567Z,3876
2018-03-24T10:26:08.016Z,3908
2018-03-24T10:26:33.478Z,3996
2018-03-24T10:26:58.978Z,4036
2018-03-24T10:27:24.416Z,4068
2018-03-24T10:27:49.918Z,4056
2018-03-24T10:28:15.388Z,4024
2018-03-24T10:28:40.887Z,3992
2018-03-24T10:29:06.448Z,3972
2018-03-24T10:29:31.910Z,3960
2018-03-24T10:29:57.500Z,3940
2018-03-24T10:30:22.920Z,3920
2018-03-24T10:30:48.532Z,3896
2018-03-24T10:31:13.957Z,3876
2018-03-24T10:31:39.466Z,3884
2018-03-24T10:32:04.989Z,3904
2018-03-24T10:32:30.534Z,3960
2018-03-24T10:32:56.020Z,4032
2018-03-24T10:33:21.516Z,4084
2018-03-24T10:33:46.997Z,4120
2018-03-24T10:34:12.526Z,4092
2018-03-24T10:34:38.023Z,4108
2018-03-24T10:35:03.607Z,4112
2018-03-24T10:35:29.156Z,4112
2018-03-24T10:35:54.604Z,4104
2018-03-24T10:36:20.105Z,4096
2018-03-24T10:36:45.598Z,4092
2018-03-24T10:37:11.111Z,4108
2018-03-24T10:37:36.641Z,4120
2018-03-24T10:38:02.115Z,4124
2018-03-24T10:38:27.702Z,4120
2018-03-24T10:38:53.197Z,4116
2018-03-24T10:39:18.733Z,4120
2018-03-24T10:39:44.204Z,4124
2018-03-24T10:40:09.738Z,4136
2018-03-24T10:40:35.232Z,4144
2018-03-24T10:41:00.755Z,4148
2018-03-24T10:41:26.400Z,4136
2018-03-24T10:41:51.911Z,4116
2018-03-24T10:42:17.416Z,4108
2018-03-24T10:42:43.015Z,4104
2018-03-24T10:43:08.419Z,4104
2018-03-24T10:43:33.890Z,4120
2018-03-24T10:43:59.368Z,4136
2018-03-24T10:44:24.852Z,4148
2018-03-24T10:44:50.331Z,4156
2018-03-24T10:45:15.843Z,4172
2018-03-24T10:45:41.436Z,4184
2018-03-24T10:46:06.957Z,4204
2018-03-24T10:46:32.437Z,4212
2018-03-24T10:46:57.938Z,4212
2018-03-24T10:47:23.483Z,4220
2018-03-24T10:47:49.079Z,4220
2018-03-24T10:48:14.503Z,4220
2018-03-24T10:49:18.165Z,4208
2018-03-24T10:49:43.675Z,4228
2018-03-24T10:50:09.288Z,4200
2018-03-24T10:50:34.728Z,4156
2018-03-24T10:51:00.260Z,4120
2018-03-24T10:51:25.745Z,4100
2018-03-24T10:51:51.238Z,4096
2018-03-24T10:52:16.734Z,4092
2018-03-24T10:52:42.244Z,4076
2018-03-24T10:53:07.709Z,4092
2018-03-24T10:53:33.201Z,4128
2018-03-24T10:53:58.724Z,4140
2018-03-24T10:54:24.193Z,4128
2018-03-24T10:54:49.715Z,4112
2018-03-24T10:55:15.207Z,4108
2018-03-24T10:55:40.704Z,4104
2018-03-24T10:56:06.224Z,4096
2018-03-24T10:56:31.772Z,4112
2018-03-24T10:56:57.213Z,4120
2018-03-24T10:57:22.750Z,4096
2018-03-24T10:57:48.234Z,4096
2018-03-24T10:58:13.715Z,3952
2018-03-24T10:58:39.224Z,3940
2018-03-24T10:59:04.710Z,3972
2018-03-24T10:59:30.211Z,3984
2018-03-24T10:59:55.726Z,4104
2018-03-24T11:00:21.216Z,4176
2018-03-24T11:00:46.697Z,4216
2018-03-24T11:01:12.198Z,4264
2018-03-24T11:01:37.738Z,4376
2018-03-24T11:02:03.211Z,4396
2018-03-24T11:02:28.718Z,4480
2018-03-24T11:02:54.183Z,4740
2018-03-24T11:03:19.667Z,5112
2018-03-24T11:03:45.137Z,5348
2018-03-24T11:04:10.636Z,5644
2018-03-24T11:04:36.246Z,6220
2018-03-24T11:05:01.735Z,6508
2018-03-24T11:05:27.174Z,6180
2018-03-24T11:05:52.645Z,5640
2018-03-24T11:06:18.118Z,5244
2018-03-24T11:06:43.564Z,4988
2018-03-24T11:07:09.132Z,4780
2018-03-24T11:07:34.638Z,4700
2018-03-24T11:08:00.122Z,4732
2018-03-24T11:08:25.654Z,4756
2018-03-24T11:08:51.142Z,4752
2018-03-24T11:09:16.661Z,4748
2018-03-24T11:09:42.174Z,4756
2018-03-24T11:10:07.651Z,4752
2018-03-24T11:10:33.236Z,4768
2018-03-24T11:10:58.711Z,4796
2018-03-24T11:11:24.188Z,4808
2018-03-24T11:11:49.730Z,4812
2018-03-24T11:12:15.257Z,4820
2018-03-24T11:12:40.736Z,4868
2018-03-24T11:13:06.234Z,4912
2018-03-24T11:13:31.763Z,4896
2018-03-24T11:13:57.295Z,4876
2018-03-24T11:14:22.776Z,4896
2018-03-24T11:14:48.293Z,4920
2018-03-24T11:15:13.758Z,4940
2018-03-24T11:15:39.224Z,4956
2018-03-24T11:16:04.723Z,4988
2018-03-24T11:16:30.218Z,5020
2018-03-24T11:16:55.718Z,5032
2018-03-24T11:17:21.207Z,5068
2018-03-24T11:17:46.681Z,5180
2018-03-24T11:18:12.198Z,5292
2018-03-24T11:18:37.680Z,5400
2018-03-24T11:19:03.175Z,5488
2018-03-24T11:19:28.651Z,5540
2018-03-24T11:19:54.206Z,5564
2018-03-24T11:20:19.645Z,5680
2018-03-24T11:20:45.147Z,5816
2018-03-24T11:21:10.633Z,5884
2018-03-24T11:21:36.117Z,5900
2018-03-24T11:22:01.615Z,5948
2018-03-24T11:22:27.138Z,6048
2018-03-24T11:22:52.617Z,6188
2018-03-24T11:23:18.130Z,6532
2018-03-24T11:23:43.641Z,7076
2018-03-24T11:24:09.128Z,7596
2018-03-24T11:24:34.611Z,7728
2018-03-24T11:25:00.102Z,7616
2018-03-24T11:25:25.589Z,7484
2018-03-24T11:25:51.122Z,7348
2018-03-24T11:26:16.641Z,7420
2018-03-24T11:26:42.162Z,7520
2018-03-24T11:27:07.722Z,7656
2018-03-24T11:27:33.202Z,7916
2018-03-24T11:27:58.750Z,8372
2018-03-24T11:28:24.206Z,8700
2018-03-24T11:28:49.730Z,9016
2018-03-24T11:29:15.290Z,9324
2018-03-24T11:29:40.735Z,9352
2018-03-24T11:30:06.240Z,9124
2018-03-24T11:30:31.853Z,8804
2018-03-24T11:30:57.322Z,8408
2018-03-24T11:31:22.792Z,8040
2018-03-24T11:31:48.294Z,7780
2018-03-24T11:32:13.797Z,7648
2018-03-24T11:32:39.298Z,7560
2018-03-24T11:33:04.805Z,7660
2018-03-24T11:33:30.263Z,7996
2018-03-24T11:33:55.758Z,8408
2018-03-24T11:34:21.239Z,8652
2018-03-24T11:34:46.855Z,8904
2018-03-24T11:35:12.301Z,9312
2018-03-24T11:35:38.021Z,9508
2018-03-24T11:36:03.556Z,9388
2018-03-24T11:36:29.068Z,9216
2018-03-24T11:36:54.549Z,9128
2018-03-24T11:38:08.396Z,9048
2018-03-24T11:38:33.904Z,8960
2018-03-24T11:38:59.353Z,8800
2018-03-24T11:39:24.878Z,8628
2018-03-24T11:39:50.374Z,8456
2018-03-24T11:40:53.958Z,8364
2018-03-24T11:41:19.475Z,8424
2018-03-24T11:41:45.025Z,8456
2018-03-24T11:42:10.520Z,8448
2018-03-24T11:42:35.970Z,8420
2018-03-24T11:43:01.456Z,8364
2018-03-24T11:43:26.942Z,8308
2018-03-24T11:43:52.538Z,8256
2018-03-24T11:44:18.015Z,8192
2018-03-24T11:44:43.544Z,8008
2018-03-24T11:45:09.002Z,7932
2018-03-24T11:45:34.477Z,7852
2018-03-24T11:46:00.023Z,7804
2018-03-24T11:46:25.508Z,7768
2018-03-24T11:46:51.102Z,7700
2018-03-24T11:47:16.548Z,7596
2018-03-24T11:47:42.030Z,7492